| time (UTC) | temp F | wind direction | speed MPH | gust MPH | rain 1hr in | rain 24hr in | rain mn in | humidity % | barometer mb |
| 20260508090908 | 91 | 0 | 0.0 | 0.0 | 0.00 | 0.00 | 0.00 | 20 | 919.0 |
| 20260508090759 | 91 | 0 | 0.0 | 0.0 | 0.00 | 0.00 | 0.00 | 21 | 919.0 |
| 20260508083237 | 90 | 0 | 0.0 | 0.0 | 0.00 | 0.00 | 0.00 | 22 | 919.0 |
| 20260508075715 | 89 | 0 | 0.0 | 0.0 | 0.00 | 0.00 | 0.00 | 22 | 919.0 |
| 20260508072153 | 85 | 0 | 0.0 | 0.0 | 0.00 | 0.00 | 0.00 | 25 | 919.0 |
| 20260508064631 | 86 | 0 | 0.0 | 0.0 | 0.00 | 0.00 | 0.00 | 26 | 919.0 |
| 20260508061109 | 85 | 0 | 0.0 | 0.0 | 0.00 | 0.00 | 0.00 | 25 | 919.0 |
| 20260508053547 | 82 | 0 | 0.0 | 0.0 | 0.00 | 0.00 | 0.00 | 28 | 919.0 |
| 20260508050025 | 80 | 0 | 0.0 | 0.0 | 0.00 | 0.00 | 0.00 | 29 | 919.0 |
| 20260508042503 | 77 | 0 | 0.0 | 0.0 | 0.00 | 0.00 | 0.00 | 31 | 919.0 |
| 20260508034940 | 76 | 0 | 0.0 | 0.0 | 0.00 | 0.00 | 0.00 | 31 | 919.0 |
| 20260508031418 | 77 | 0 | 0.0 | 0.0 | 0.00 | 0.00 | 0.00 | 31 | 919.0 |
| 20260508023855 | 76 | 0 | 0.0 | 0.0 | 0.00 | 0.00 | 0.00 | 31 | 918.0 |
| 20260508020333 | 76 | 0 | 0.0 | 0.0 | 0.00 | 0.00 | 0.00 | 32 | 918.0 |
| 20260508012811 | 77 | 0 | 0.0 | 0.0 | 0.00 | 0.00 | 0.00 | 31 | 918.0 |
| 20260508005249 | 77 | 0 | 0.0 | 0.0 | 0.00 | 0.00 | 0.00 | 32 | 918.0 |
| 20260508001727 | 77 | 0 | 0.0 | 0.0 | 0.00 | 0.00 | 0.00 | 32 | 918.0 |
| 20260507234205 | 77 | 0 | 0.0 | 0.0 | 0.00 | 0.00 | 0.00 | 32 | 918.0 |
| 20260507230642 | 78 | 0 | 0.0 | 0.0 | 0.00 | 0.00 | 0.00 | 31 | 918.0 |
| 20260507223120 | 78 | 0 | 0.0 | 0.0 | 0.00 | 0.00 | 0.00 | 31 | 918.0 |
| 20260507215558 | 80 | 0 | 0.0 | 0.0 | 0.00 | 0.00 | 0.00 | 29 | 918.0 |
| 20260507212037 | 79 | 0 | 0.0 | 0.0 | 0.00 | 0.00 | 0.00 | 29 | 918.0 |
| 20260507204514 | 79 | 0 | 0.0 | 0.0 | 0.00 | 0.00 | 0.00 | 28 | 918.0 |
| 20260507204343 | 80 | 0 | 0.0 | 0.0 | 0.00 | 0.00 | 0.00 | 28 | 918.0 |
| 20260507200821 | 80 | 0 | 0.0 | 0.0 | 0.00 | 0.00 | 0.00 | 27 | 918.0 |
| 20260507193259 | 80 | 0 | 0.0 | 0.0 | 0.00 | 0.00 | 0.00 | 27 | 918.0 |
| 20260507185737 | 79 | 0 | 0.0 | 0.0 | 0.00 | 0.00 | 0.00 | 28 | 918.0 |
| 20260507182212 | 80 | 0 | 0.0 | 0.0 | 0.00 | 0.00 | 0.00 | 27 | 917.0 |
| 20260507174650 | 81 | 0 | 0.0 | 0.0 | 0.00 | 0.00 | 0.00 | 25 | 917.0 |
| 20260507171128 | 81 | 0 | 0.0 | 0.0 | 0.00 | 0.00 | 0.00 | 25 | 917.0 |
| 20260507163606 | 80 | 0 | 0.0 | 0.0 | 0.00 | 0.00 | 0.00 | 25 | 917.0 |
| 20260507160043 | 80 | 0 | 0.0 | 0.0 | 0.00 | 0.00 | 0.00 | 25 | 917.0 |
| 20260507152521 | 81 | 0 | 0.0 | 0.0 | 0.00 | 0.00 | 0.00 | 23 | 917.0 |
| 20260507144958 | 81 | 0 | 0.0 | 0.0 | 0.00 | 0.00 | 0.00 | 23 | 917.0 |
| 20260507141435 | 80 | 0 | 0.0 | 0.0 | 0.00 | 0.00 | 0.00 | 24 | 917.0 |
| 20260507133913 | 80 | 0 | 0.0 | 0.0 | 0.00 | 0.00 | 0.00 | 24 | 917.0 |
| 20260507133744 | 80 | 0 | 0.0 | 0.0 | 0.00 | 0.00 | 0.00 | 24 | 917.0 |
| 20260507130221 | 82 | 0 | 0.0 | 0.0 | 0.00 | 0.00 | 0.00 | 23 | 917.0 |
| 20260507125806 | 81 | 0 | 0.0 | 0.0 | 0.00 | 0.00 | 0.00 | 22 | 917.0 |
| 20260507122242 | 81 | 0 | 0.0 | 0.0 | 0.00 | 0.00 | 0.00 | 23 | 917.0 |
| 20260507115130 | 81 | 0 | 0.0 | 0.0 | 0.00 | 0.00 | 0.00 | 24 | 917.0 |
| 20260507114719 | 81 | 0 | 0.0 | 0.0 | 0.00 | 0.00 | 0.00 | 24 | 917.0 |
| 20260507111154 | 82 | 0 | 0.0 | 0.0 | 0.00 | 0.00 | 0.00 | 24 | 917.0 |
| 20260507104042 | 81 | 0 | 0.0 | 0.0 | 0.00 | 0.00 | 0.00 | 25 | 917.0 |
| 20260507103631 | 81 | 0 | 0.0 | 0.0 | 0.00 | 0.00 | 0.00 | 25 | 917.0 |
| 20260507100107 | 83 | 0 | 0.0 | 0.0 | 0.00 | 0.00 | 0.00 | 24 | 918.0 |